sensor_id;sensor_type;location;lat;lon;timestamp;P1;durP1;ratioP1;P2;durP2;ratioP2
7941;SDS011;4016;50.758;7.150;2023-07-02T00:04:08;6.03;;;3.77;;
7941;SDS011;4016;50.758;7.150;2023-07-02T00:09:09;3.83;;;3.43;;
7941;SDS011;4016;50.758;7.150;2023-07-02T00:14:10;5.00;;;3.87;;
7941;SDS011;4016;50.758;7.150;2023-07-02T00:19:13;6.13;;;2.90;;
7941;SDS011;4016;50.758;7.150;2023-07-02T00:24:13;5.27;;;3.70;;
7941;SDS011;4016;50.758;7.150;2023-07-02T00:29:15;4.63;;;3.60;;
7941;SDS011;4016;50.758;7.150;2023-07-02T00:34:16;4.23;;;3.33;;
7941;SDS011;4016;50.758;7.150;2023-07-02T00:39:18;4.50;;;3.67;;
7941;SDS011;4016;50.758;7.150;2023-07-02T00:44:18;3.60;;;3.30;;
7941;SDS011;4016;50.758;7.150;2023-07-02T00:49:18;3.40;;;3.10;;
7941;SDS011;4016;50.758;7.150;2023-07-02T00:54:19;4.10;;;3.10;;
7941;SDS011;4016;50.758;7.150;2023-07-02T00:59:21;3.93;;;3.50;;
7941;SDS011;4016;50.758;7.150;2023-07-02T01:04:22;3.73;;;3.33;;
7941;SDS011;4016;50.758;7.150;2023-07-02T01:09:27;4.80;;;3.13;;
7941;SDS011;4016;50.758;7.150;2023-07-02T01:14:29;4.57;;;3.63;;
7941;SDS011;4016;50.758;7.150;2023-07-02T01:19:46;5.07;;;3.27;;
7941;SDS011;4016;50.758;7.150;2023-07-02T01:24:52;3.87;;;3.47;;
7941;SDS011;4016;50.758;7.150;2023-07-02T01:29:53;4.17;;;3.37;;
7941;SDS011;4016;50.758;7.150;2023-07-02T01:34:54;5.50;;;4.00;;
7941;SDS011;4016;50.758;7.150;2023-07-02T01:39:54;5.27;;;4.03;;
7941;SDS011;4016;50.758;7.150;2023-07-02T01:44:55;5.90;;;4.27;;
7941;SDS011;4016;50.758;7.150;2023-07-02T01:49:55;6.37;;;4.50;;
7941;SDS011;4016;50.758;7.150;2023-07-02T01:54:56;6.73;;;4.70;;
7941;SDS011;4016;50.758;7.150;2023-07-02T01:59:56;7.13;;;5.30;;
7941;SDS011;4016;50.758;7.150;2023-07-02T02:04:57;7.47;;;4.83;;
7941;SDS011;4016;50.758;7.150;2023-07-02T02:09:57;8.93;;;5.33;;
7941;SDS011;4016;50.758;7.150;2023-07-02T02:14:58;6.00;;;5.40;;
7941;SDS011;4016;50.758;7.150;2023-07-02T02:19:58;12.60;;;5.87;;
7941;SDS011;4016;50.758;7.150;2023-07-02T02:24:58;6.97;;;5.50;;
7941;SDS011;4016;50.758;7.150;2023-07-02T02:29:59;10.37;;;5.80;;
7941;SDS011;4016;50.758;7.150;2023-07-02T02:35:02;5.90;;;4.70;;
7941;SDS011;4016;50.758;7.150;2023-07-02T02:40:03;7.67;;;5.43;;
7941;SDS011;4016;50.758;7.150;2023-07-02T02:45:05;7.27;;;5.10;;
7941;SDS011;4016;50.758;7.150;2023-07-02T02:50:06;11.73;;;5.60;;
7941;SDS011;4016;50.758;7.150;2023-07-02T02:55:08;9.67;;;5.50;;
7941;SDS011;4016;50.758;7.150;2023-07-02T03:00:10;8.77;;;5.97;;
7941;SDS011;4016;50.758;7.150;2023-07-02T03:05:11;7.87;;;5.83;;
7941;SDS011;4016;50.758;7.150;2023-07-02T03:10:12;9.03;;;6.33;;
7941;SDS011;4016;50.758;7.150;2023-07-02T03:15:13;9.77;;;5.83;;
7941;SDS011;4016;50.758;7.150;2023-07-02T03:20:13;9.80;;;6.20;;
7941;SDS011;4016;50.758;7.150;2023-07-02T03:25:14;11.40;;;5.97;;
7941;SDS011;4016;50.758;7.150;2023-07-02T03:30:15;9.57;;;6.20;;
7941;SDS011;4016;50.758;7.150;2023-07-02T03:35:15;7.97;;;6.00;;
7941;SDS011;4016;50.758;7.150;2023-07-02T03:40:21;9.10;;;6.73;;
7941;SDS011;4016;50.758;7.150;2023-07-02T03:45:21;9.70;;;6.10;;
7941;SDS011;4016;50.758;7.150;2023-07-02T03:50:21;7.00;;;5.90;;
7941;SDS011;4016;50.758;7.150;2023-07-02T03:55:22;9.90;;;5.50;;
7941;SDS011;4016;50.758;7.150;2023-07-02T04:00:22;9.27;;;6.13;;
7941;SDS011;4016;50.758;7.150;2023-07-02T04:05:23;9.43;;;6.23;;
7941;SDS011;4016;50.758;7.150;2023-07-02T04:10:23;8.97;;;6.97;;
7941;SDS011;4016;50.758;7.150;2023-07-02T04:15:24;9.10;;;6.90;;
7941;SDS011;4016;50.758;7.150;2023-07-02T04:20:26;9.13;;;7.20;;
7941;SDS011;4016;50.758;7.150;2023-07-02T04:25:28;10.10;;;7.30;;
7941;SDS011;4016;50.758;7.150;2023-07-02T04:30:28;12.17;;;8.67;;
7941;SDS011;4016;50.758;7.150;2023-07-02T04:35:29;10.50;;;7.77;;
7941;SDS011;4016;50.758;7.150;2023-07-02T04:40:29;13.27;;;8.97;;
7941;SDS011;4016;50.758;7.150;2023-07-02T04:45:30;16.00;;;10.73;;
7941;SDS011;4016;50.758;7.150;2023-07-02T04:50:36;13.00;;;9.00;;
7941;SDS011;4016;50.758;7.150;2023-07-02T04:55:36;14.97;;;8.63;;
7941;SDS011;4016;50.758;7.150;2023-07-02T05:00:37;13.90;;;10.07;;
7941;SDS011;4016;50.758;7.150;2023-07-02T05:05:37;15.20;;;9.67;;
7941;SDS011;4016;50.758;7.150;2023-07-02T05:10:38;14.60;;;10.00;;
7941;SDS011;4016;50.758;7.150;2023-07-02T05:15:39;15.73;;;11.07;;
7941;SDS011;4016;50.758;7.150;2023-07-02T05:20:40;18.33;;;10.53;;
7941;SDS011;4016;50.758;7.150;2023-07-02T05:25:40;22.23;;;11.37;;
7941;SDS011;4016;50.758;7.150;2023-07-02T05:30:41;14.63;;;10.83;;
7941;SDS011;4016;50.758;7.150;2023-07-02T05:35:41;17.37;;;10.83;;
7941;SDS011;4016;50.758;7.150;2023-07-02T05:40:42;20.60;;;11.70;;
7941;SDS011;4016;50.758;7.150;2023-07-02T05:45:42;17.00;;;10.57;;
7941;SDS011;4016;50.758;7.150;2023-07-02T05:50:43;16.77;;;11.17;;
7941;SDS011;4016;50.758;7.150;2023-07-02T05:55:43;20.53;;;12.40;;
7941;SDS011;4016;50.758;7.150;2023-07-02T06:00:44;20.60;;;13.57;;
7941;SDS011;4016;50.758;7.150;2023-07-02T06:05:49;16.03;;;12.67;;
7941;SDS011;4016;50.758;7.150;2023-07-02T06:10:50;17.87;;;12.17;;
7941;SDS011;4016;50.758;7.150;2023-07-02T06:15:51;20.33;;;13.70;;
7941;SDS011;4016;50.758;7.150;2023-07-02T06:20:51;18.50;;;12.73;;
7941;SDS011;4016;50.758;7.150;2023-07-02T06:25:52;20.40;;;13.50;;
7941;SDS011;4016;50.758;7.150;2023-07-02T06:30:58;16.07;;;12.03;;
7941;SDS011;4016;50.758;7.150;2023-07-02T06:35:59;22.08;;;13.63;;
7941;SDS011;4016;50.758;7.150;2023-07-02T06:40:59;24.73;;;13.83;;
7941;SDS011;4016;50.758;7.150;2023-07-02T06:45:59;18.90;;;13.05;;
7941;SDS011;4016;50.758;7.150;2023-07-02T06:51:00;18.45;;;12.98;;
7941;SDS011;4016;50.758;7.150;2023-07-02T06:56:00;17.85;;;12.70;;
7941;SDS011;4016;50.758;7.150;2023-07-02T07:01:01;20.02;;;13.23;;
7941;SDS011;4016;50.758;7.150;2023-07-02T07:06:02;18.98;;;12.55;;
7941;SDS011;4016;50.758;7.150;2023-07-02T07:11:02;20.55;;;13.25;;
7941;SDS011;4016;50.758;7.150;2023-07-02T07:16:03;17.45;;;12.43;;
7941;SDS011;4016;50.758;7.150;2023-07-02T07:21:03;17.60;;;12.20;;
7941;SDS011;4016;50.758;7.150;2023-07-02T07:26:04;20.60;;;12.30;;
7941;SDS011;4016;50.758;7.150;2023-07-02T07:31:04;20.23;;;12.05;;
7941;SDS011;4016;50.758;7.150;2023-07-02T07:36:05;16.95;;;11.70;;
7941;SDS011;4016;50.758;7.150;2023-07-02T07:41:05;17.23;;;12.02;;
7941;SDS011;4016;50.758;7.150;2023-07-02T07:46:05;17.35;;;11.30;;
7941;SDS011;4016;50.758;7.150;2023-07-02T07:51:06;17.85;;;10.80;;
7941;SDS011;4016;50.758;7.150;2023-07-02T07:56:06;17.50;;;11.20;;
7941;SDS011;4016;50.758;7.150;2023-07-02T08:01:07;15.20;;;10.45;;
7941;SDS011;4016;50.758;7.150;2023-07-02T08:06:07;15.02;;;10.05;;
7941;SDS011;4016;50.758;7.150;2023-07-02T08:11:07;15.77;;;9.95;;
7941;SDS011;4016;50.758;7.150;2023-07-02T08:16:09;20.38;;;11.40;;
7941;SDS011;4016;50.758;7.150;2023-07-02T08:21:10;15.20;;;10.10;;
7941;SDS011;4016;50.758;7.150;2023-07-02T08:26:11;19.05;;;11.20;;
7941;SDS011;4016;50.758;7.150;2023-07-02T08:31:11;15.10;;;10.25;;
7941;SDS011;4016;50.758;7.150;2023-07-02T08:36:12;16.50;;;11.35;;
7941;SDS011;4016;50.758;7.150;2023-07-02T08:41:14;19.23;;;10.82;;
7941;SDS011;4016;50.758;7.150;2023-07-02T08:46:15;14.95;;;9.68;;
7941;SDS011;4016;50.758;7.150;2023-07-02T08:51:16;16.73;;;10.18;;
7941;SDS011;4016;50.758;7.150;2023-07-02T08:56:17;13.32;;;9.98;;
7941;SDS011;4016;50.758;7.150;2023-07-02T09:01:17;15.05;;;10.20;;
7941;SDS011;4016;50.758;7.150;2023-07-02T09:06:18;18.58;;;11.20;;
7941;SDS011;4016;50.758;7.150;2023-07-02T09:11:18;15.25;;;9.80;;
7941;SDS011;4016;50.758;7.150;2023-07-02T09:16:23;14.73;;;8.55;;
7941;SDS011;4016;50.758;7.150;2023-07-02T09:21:25;16.25;;;9.77;;
7941;SDS011;4016;50.758;7.150;2023-07-02T09:26:27;15.50;;;9.40;;
7941;SDS011;4016;50.758;7.150;2023-07-02T09:31:28;11.77;;;9.05;;
7941;SDS011;4016;50.758;7.150;2023-07-02T09:36:28;14.55;;;9.90;;
7941;SDS011;4016;50.758;7.150;2023-07-02T09:41:29;16.02;;;9.18;;
7941;SDS011;4016;50.758;7.150;2023-07-02T09:46:29;14.00;;;9.40;;
7941;SDS011;4016;50.758;7.150;2023-07-02T09:51:31;15.43;;;10.15;;
7941;SDS011;4016;50.758;7.150;2023-07-02T09:56:32;13.27;;;10.65;;
7941;SDS011;4016;50.758;7.150;2023-07-02T10:01:33;14.57;;;10.57;;
7941;SDS011;4016;50.758;7.150;2023-07-02T10:06:43;11.85;;;9.18;;
7941;SDS011;4016;50.758;7.150;2023-07-02T10:11:54;16.52;;;10.50;;
7941;SDS011;4016;50.758;7.150;2023-07-02T10:16:56;14.80;;;10.20;;
7941;SDS011;4016;50.758;7.150;2023-07-02T10:22:00;13.30;;;9.48;;
7941;SDS011;4016;50.758;7.150;2023-07-02T10:27:04;13.18;;;9.07;;
7941;SDS011;4016;50.758;7.150;2023-07-02T10:32:04;12.82;;;9.68;;
7941;SDS011;4016;50.758;7.150;2023-07-02T10:37:05;13.57;;;10.65;;
7941;SDS011;4016;50.758;7.150;2023-07-02T10:42:09;14.80;;;9.50;;
7941;SDS011;4016;50.758;7.150;2023-07-02T10:47:10;12.23;;;9.70;;
7941;SDS011;4016;50.758;7.150;2023-07-02T10:52:10;13.88;;;8.82;;
7941;SDS011;4016;50.758;7.150;2023-07-02T10:57:12;13.82;;;10.02;;
7941;SDS011;4016;50.758;7.150;2023-07-02T11:02:17;12.95;;;10.20;;
7941;SDS011;4016;50.758;7.150;2023-07-02T11:07:22;16.00;;;9.55;;
7941;SDS011;4016;50.758;7.150;2023-07-02T11:12:27;13.13;;;8.65;;
7941;SDS011;4016;50.758;7.150;2023-07-02T11:17:28;12.55;;;8.73;;
7941;SDS011;4016;50.758;7.150;2023-07-02T11:22:34;13.45;;;9.45;;
7941;SDS011;4016;50.758;7.150;2023-07-02T11:27:37;12.90;;;9.40;;
7941;SDS011;4016;50.758;7.150;2023-07-02T11:32:47;11.65;;;8.27;;
7941;SDS011;4016;50.758;7.150;2023-07-02T11:37:53;12.85;;;8.73;;
7941;SDS011;4016;50.758;7.150;2023-07-02T11:42:53;13.27;;;8.60;;
7941;SDS011;4016;50.758;7.150;2023-07-02T11:47:54;13.93;;;9.30;;
7941;SDS011;4016;50.758;7.150;2023-07-02T11:52:54;12.48;;;8.52;;
7941;SDS011;4016;50.758;7.150;2023-07-02T11:57:57;11.20;;;8.40;;
7941;SDS011;4016;50.758;7.150;2023-07-02T12:02:58;13.52;;;9.23;;
7941;SDS011;4016;50.758;7.150;2023-07-02T12:07:58;14.38;;;9.18;;
7941;SDS011;4016;50.758;7.150;2023-07-02T12:12:59;13.88;;;9.23;;
7941;SDS011;4016;50.758;7.150;2023-07-02T12:17:59;12.15;;;9.38;;
7941;SDS011;4016;50.758;7.150;2023-07-02T12:23:00;14.57;;;9.35;;
7941;SDS011;4016;50.758;7.150;2023-07-02T12:28:01;14.90;;;9.77;;
7941;SDS011;4016;50.758;7.150;2023-07-02T12:33:03;15.00;;;9.45;;
7941;SDS011;4016;50.758;7.150;2023-07-02T12:38:03;15.15;;;9.32;;
7941;SDS011;4016;50.758;7.150;2023-07-02T12:43:04;14.90;;;9.77;;
7941;SDS011;4016;50.758;7.150;2023-07-02T12:48:04;14.23;;;9.20;;
7941;SDS011;4016;50.758;7.150;2023-07-02T12:53:05;14.23;;;10.25;;
7941;SDS011;4016;50.758;7.150;2023-07-02T12:58:06;16.85;;;9.98;;
7941;SDS011;4016;50.758;7.150;2023-07-02T13:03:09;13.10;;;9.45;;
7941;SDS011;4016;50.758;7.150;2023-07-02T13:08:11;12.40;;;9.30;;
7941;SDS011;4016;50.758;7.150;2023-07-02T13:13:11;13.45;;;9.63;;
7941;SDS011;4016;50.758;7.150;2023-07-02T13:18:12;12.13;;;8.93;;
7941;SDS011;4016;50.758;7.150;2023-07-02T13:23:12;11.95;;;8.93;;
7941;SDS011;4016;50.758;7.150;2023-07-02T13:28:12;14.98;;;9.13;;
7941;SDS011;4016;50.758;7.150;2023-07-02T13:33:13;13.05;;;9.35;;
7941;SDS011;4016;50.758;7.150;2023-07-02T13:38:14;14.18;;;9.43;;
7941;SDS011;4016;50.758;7.150;2023-07-02T13:43:14;12.15;;;9.68;;
7941;SDS011;4016;50.758;7.150;2023-07-02T13:48:14;12.75;;;9.48;;
7941;SDS011;4016;50.758;7.150;2023-07-02T13:53:15;12.80;;;9.07;;
7941;SDS011;4016;50.758;7.150;2023-07-02T13:58:15;13.77;;;8.82;;
7941;SDS011;4016;50.758;7.150;2023-07-02T14:03:16;10.55;;;8.43;;
7941;SDS011;4016;50.758;7.150;2023-07-02T14:08:16;15.02;;;9.48;;
7941;SDS011;4016;50.758;7.150;2023-07-02T14:13:17;12.43;;;8.73;;
7941;SDS011;4016;50.758;7.150;2023-07-02T14:18:17;11.43;;;9.30;;
7941;SDS011;4016;50.758;7.150;2023-07-02T14:23:17;13.55;;;9.25;;
7941;SDS011;4016;50.758;7.150;2023-07-02T14:28:18;13.38;;;8.70;;
7941;SDS011;4016;50.758;7.150;2023-07-02T14:33:18;13.60;;;9.18;;
7941;SDS011;4016;50.758;7.150;2023-07-02T14:38:19;12.80;;;9.40;;
7941;SDS011;4016;50.758;7.150;2023-07-02T14:43:21;12.73;;;9.10;;
7941;SDS011;4016;50.758;7.150;2023-07-02T14:48:24;11.85;;;9.13;;
7941;SDS011;4016;50.758;7.150;2023-07-02T14:53:25;12.02;;;8.80;;
7941;SDS011;4016;50.758;7.150;2023-07-02T14:58:27;14.88;;;10.30;;
7941;SDS011;4016;50.758;7.150;2023-07-02T15:03:29;13.05;;;8.55;;
7941;SDS011;4016;50.758;7.150;2023-07-02T15:08:30;10.88;;;8.43;;
7941;SDS011;4016;50.758;7.150;2023-07-02T15:13:30;10.77;;;8.48;;
7941;SDS011;4016;50.758;7.150;2023-07-02T15:18:31;12.23;;;8.82;;
7941;SDS011;4016;50.758;7.150;2023-07-02T15:23:32;11.57;;;8.93;;
7941;SDS011;4016;50.758;7.150;2023-07-02T15:28:33;15.05;;;8.90;;
7941;SDS011;4016;50.758;7.150;2023-07-02T15:33:36;11.20;;;8.38;;
7941;SDS011;4016;50.758;7.150;2023-07-02T15:38:37;12.90;;;8.48;;
7941;SDS011;4016;50.758;7.150;2023-07-02T15:43:38;11.23;;;8.38;;
7941;SDS011;4016;50.758;7.150;2023-07-02T15:48:39;12.18;;;8.57;;
7941;SDS011;4016;50.758;7.150;2023-07-02T15:53:40;12.00;;;8.32;;
7941;SDS011;4016;50.758;7.150;2023-07-02T15:58:42;11.45;;;8.60;;
7941;SDS011;4016;50.758;7.150;2023-07-02T16:03:42;13.48;;;8.25;;
7941;SDS011;4016;50.758;7.150;2023-07-02T16:08:43;13.82;;;8.32;;
7941;SDS011;4016;50.758;7.150;2023-07-02T16:13:43;13.48;;;8.20;;
7941;SDS011;4016;50.758;7.150;2023-07-02T16:18:44;11.63;;;7.72;;
7941;SDS011;4016;50.758;7.150;2023-07-02T16:23:45;12.00;;;8.35;;
7941;SDS011;4016;50.758;7.150;2023-07-02T16:28:46;12.18;;;7.85;;
7941;SDS011;4016;50.758;7.150;2023-07-02T16:33:46;12.43;;;8.20;;
7941;SDS011;4016;50.758;7.150;2023-07-02T16:38:47;13.05;;;8.13;;
7941;SDS011;4016;50.758;7.150;2023-07-02T16:43:49;10.13;;;7.65;;
7941;SDS011;4016;50.758;7.150;2023-07-02T16:48:49;9.88;;;7.07;;
7941;SDS011;4016;50.758;7.150;2023-07-02T16:53:50;13.48;;;7.95;;
7941;SDS011;4016;50.758;7.150;2023-07-02T16:58:50;13.63;;;7.95;;
7941;SDS011;4016;50.758;7.150;2023-07-02T17:03:51;11.23;;;7.97;;
7941;SDS011;4016;50.758;7.150;2023-07-02T17:09:37;14.27;;;8.35;;
7941;SDS011;4016;50.758;7.150;2023-07-02T17:14:31;12.73;;;7.72;;
7941;SDS011;4016;50.758;7.150;2023-07-02T17:19:35;9.85;;;7.68;;
7941;SDS011;4016;50.758;7.150;2023-07-02T17:24:43;11.93;;;8.80;;
7941;SDS011;4016;50.758;7.150;2023-07-02T17:29:51;11.05;;;7.85;;
7941;SDS011;4016;50.758;7.150;2023-07-02T17:34:53;9.82;;;7.75;;
7941;SDS011;4016;50.758;7.150;2023-07-02T17:39:53;13.68;;;8.05;;
7941;SDS011;4016;50.758;7.150;2023-07-02T17:44:54;11.60;;;7.18;;
7941;SDS011;4016;50.758;7.150;2023-07-02T17:49:58;11.10;;;7.82;;
7941;SDS011;4016;50.758;7.150;2023-07-02T17:54:59;10.23;;;7.95;;
7941;SDS011;4016;50.758;7.150;2023-07-02T18:00:00;10.85;;;8.30;;
7941;SDS011;4016;50.758;7.150;2023-07-02T18:05:01;11.65;;;7.65;;
7941;SDS011;4016;50.758;7.150;2023-07-02T18:10:01;10.95;;;8.43;;
7941;SDS011;4016;50.758;7.150;2023-07-02T18:15:01;11.82;;;7.80;;
7941;SDS011;4016;50.758;7.150;2023-07-02T18:20:02;11.68;;;7.45;;
7941;SDS011;4016;50.758;7.150;2023-07-02T18:25:04;11.25;;;8.05;;
7941;SDS011;4016;50.758;7.150;2023-07-02T18:30:04;15.13;;;7.65;;
7941;SDS011;4016;50.758;7.150;2023-07-02T18:35:05;13.95;;;9.05;;
7941;SDS011;4016;50.758;7.150;2023-07-02T18:40:08;11.88;;;7.60;;
7941;SDS011;4016;50.758;7.150;2023-07-02T18:45:09;11.88;;;7.50;;
7941;SDS011;4016;50.758;7.150;2023-07-02T18:50:11;12.95;;;8.35;;
7941;SDS011;4016;50.758;7.150;2023-07-02T18:55:14;13.57;;;7.82;;
7941;SDS011;4016;50.758;7.150;2023-07-02T19:00:15;10.68;;;7.78;;
7941;SDS011;4016;50.758;7.150;2023-07-02T19:05:16;10.80;;;7.13;;
7941;SDS011;4016;50.758;7.150;2023-07-02T19:10:17;12.07;;;7.22;;
7941;SDS011;4016;50.758;7.150;2023-07-02T19:15:18;13.30;;;7.38;;
7941;SDS011;4016;50.758;7.150;2023-07-02T19:20:18;13.45;;;7.72;;
7941;SDS011;4016;50.758;7.150;2023-07-02T19:25:19;13.90;;;7.78;;
7941;SDS011;4016;50.758;7.150;2023-07-02T19:30:20;13.02;;;7.32;;
7941;SDS011;4016;50.758;7.150;2023-07-02T19:35:21;8.45;;;6.72;;
7941;SDS011;4016;50.758;7.150;2023-07-02T19:40:22;12.40;;;7.63;;
7941;SDS011;4016;50.758;7.150;2023-07-02T19:45:24;11.10;;;7.15;;
7941;SDS011;4016;50.758;7.150;2023-07-02T19:50:24;12.65;;;7.53;;
7941;SDS011;4016;50.758;7.150;2023-07-02T19:55:25;10.57;;;7.00;;
7941;SDS011;4016;50.758;7.150;2023-07-02T20:00:25;9.45;;;7.45;;
7941;SDS011;4016;50.758;7.150;2023-07-02T20:05:26;7.97;;;6.55;;
7941;SDS011;4016;50.758;7.150;2023-07-02T20:10:26;10.43;;;6.38;;
7941;SDS011;4016;50.758;7.150;2023-07-02T20:15:27;11.23;;;6.63;;
7941;SDS011;4016;50.758;7.150;2023-07-02T20:20:27;11.10;;;6.93;;
7941;SDS011;4016;50.758;7.150;2023-07-02T20:25:30;14.73;;;7.15;;
7941;SDS011;4016;50.758;7.150;2023-07-02T20:30:31;11.35;;;7.32;;
7941;SDS011;4016;50.758;7.150;2023-07-02T20:35:31;11.13;;;6.43;;
7941;SDS011;4016;50.758;7.150;2023-07-02T20:40:32;8.25;;;6.15;;
7941;SDS011;4016;50.758;7.150;2023-07-02T20:45:32;9.45;;;6.32;;
7941;SDS011;4016;50.758;7.150;2023-07-02T20:50:33;9.20;;;7.13;;
7941;SDS011;4016;50.758;7.150;2023-07-02T20:55:35;11.60;;;6.72;;
7941;SDS011;4016;50.758;7.150;2023-07-02T21:00:36;9.68;;;6.38;;
7941;SDS011;4016;50.758;7.150;2023-07-02T21:05:36;11.48;;;6.90;;
7941;SDS011;4016;50.758;7.150;2023-07-02T21:10:38;9.55;;;6.60;;
7941;SDS011;4016;50.758;7.150;2023-07-02T21:15:39;11.35;;;6.88;;
7941;SDS011;4016;50.758;7.150;2023-07-02T21:20:40;11.68;;;6.80;;
7941;SDS011;4016;50.758;7.150;2023-07-02T21:25:42;9.55;;;7.03;;
7941;SDS011;4016;50.758;7.150;2023-07-02T21:30:45;11.63;;;7.05;;
7941;SDS011;4016;50.758;7.150;2023-07-02T21:35:46;14.90;;;6.78;;
7941;SDS011;4016;50.758;7.150;2023-07-02T21:40:47;12.18;;;7.07;;
7941;SDS011;4016;50.758;7.150;2023-07-02T21:45:54;9.60;;;5.85;;
7941;SDS011;4016;50.758;7.150;2023-07-02T21:50:55;11.75;;;6.43;;
7941;SDS011;4016;50.758;7.150;2023-07-02T21:55:56;10.65;;;5.45;;
7941;SDS011;4016;50.758;7.150;2023-07-02T22:00:56;7.30;;;4.30;;
7941;SDS011;4016;50.758;7.150;2023-07-02T22:05:58;7.18;;;4.20;;
7941;SDS011;4016;50.758;7.150;2023-07-02T22:10:58;7.18;;;4.07;;
7941;SDS011;4016;50.758;7.150;2023-07-02T22:15:58;6.60;;;4.20;;
7941;SDS011;4016;50.758;7.150;2023-07-02T22:20:59;6.28;;;3.78;;
7941;SDS011;4016;50.758;7.150;2023-07-02T22:26:00;6.43;;;3.47;;
7941;SDS011;4016;50.758;7.150;2023-07-02T22:31:01;7.88;;;3.60;;
7941;SDS011;4016;50.758;7.150;2023-07-02T22:36:02;8.02;;;3.97;;
7941;SDS011;4016;50.758;7.150;2023-07-02T22:41:03;6.85;;;3.72;;
7941;SDS011;4016;50.758;7.150;2023-07-02T22:46:03;7.90;;;3.55;;
7941;SDS011;4016;50.758;7.150;2023-07-02T22:51:04;5.50;;;3.35;;
7941;SDS011;4016;50.758;7.150;2023-07-02T22:56:11;9.80;;;3.67;;
7941;SDS011;4016;50.758;7.150;2023-07-02T23:01:12;7.57;;;3.45;;
7941;SDS011;4016;50.758;7.150;2023-07-02T23:06:15;6.77;;;3.67;;
7941;SDS011;4016;50.758;7.150;2023-07-02T23:11:16;8.67;;;3.90;;
7941;SDS011;4016;50.758;7.150;2023-07-02T23:16:16;5.37;;;3.43;;
7941;SDS011;4016;50.758;7.150;2023-07-02T23:21:17;8.87;;;3.77;;
7941;SDS011;4016;50.758;7.150;2023-07-02T23:26:18;6.20;;;3.50;;
7941;SDS011;4016;50.758;7.150;2023-07-02T23:31:19;10.57;;;3.80;;
7941;SDS011;4016;50.758;7.150;2023-07-02T23:36:23;6.20;;;3.60;;
7941;SDS011;4016;50.758;7.150;2023-07-02T23:41:23;11.37;;;3.90;;
7941;SDS011;4016;50.758;7.150;2023-07-02T23:46:24;9.23;;;3.30;;
7941;SDS011;4016;50.758;7.150;2023-07-02T23:51:24;7.03;;;4.00;;
7941;SDS011;4016;50.758;7.150;2023-07-02T23:56:25;6.23;;;3.27;;
